createdAt,value
2023-03-16T00:00:55.718Z,46.78
2023-03-16T00:03:30.678Z,47.18
2023-03-16T00:06:01.428Z,48.00
2023-03-16T00:08:31.834Z,47.95
2023-03-16T00:11:02.989Z,49.31
2023-03-16T00:13:33.776Z,47.66
2023-03-16T00:16:05.683Z,47.86
2023-03-16T00:18:39.516Z,48.59
2023-03-16T00:21:10.619Z,49.10
2023-03-16T00:23:43.138Z,47.50
2023-03-16T00:26:15.552Z,47.25
2023-03-16T00:28:45.978Z,48.21
2023-03-16T00:31:17.937Z,48.15
2023-03-16T00:33:49.960Z,48.25
2023-03-16T00:36:20.739Z,47.04
2023-03-16T00:38:51.564Z,47.41
2023-03-16T00:41:23.085Z,47.78
2023-03-16T00:43:54.063Z,49.67
2023-03-16T00:46:27.254Z,48.10
2023-03-16T00:48:59.667Z,47.45
2023-03-16T00:51:30.668Z,47.27
2023-03-16T00:54:01.725Z,48.05
2023-03-16T00:56:32.565Z,47.91
2023-03-16T00:59:02.765Z,47.46
2023-03-16T01:01:33.807Z,50.32
2023-03-16T01:04:05.919Z,50.12
2023-03-16T01:06:38.794Z,47.95
2023-03-16T01:09:10.075Z,48.08
2023-03-16T01:11:43.304Z,48.54
2023-03-16T01:14:15.951Z,49.38
2023-03-16T01:16:57.860Z,49.08
2023-03-16T01:19:31.270Z,48.94
2023-03-16T01:22:02.631Z,50.62
2023-03-16T01:24:33.119Z,48.93
2023-03-16T01:27:04.814Z,49.27
2023-03-16T01:29:35.937Z,49.32
2023-03-16T01:32:05.932Z,50.20
2023-03-16T01:34:37.511Z,50.49
2023-03-16T01:37:07.496Z,49.68
2023-03-16T01:39:40.356Z,49.37
2023-03-16T01:42:11.064Z,50.11
2023-03-16T01:45:01.945Z,51.65
2023-03-16T01:47:31.531Z,50.11
2023-03-16T01:50:04.147Z,50.70
2023-03-16T01:52:36.048Z,51.44
2023-03-16T01:55:09.756Z,51.86
2023-03-16T01:57:42.859Z,50.82
2023-03-16T02:00:19.614Z,51.72
2023-03-16T02:02:53.445Z,51.03
2023-03-16T02:05:28.052Z,50.34
2023-03-16T02:07:59.468Z,50.52
2023-03-16T02:10:31.626Z,54.49
2023-03-16T02:13:02.799Z,54.20
2023-03-16T02:15:36.827Z,53.18
2023-03-16T02:18:08.292Z,52.46
2023-03-16T02:20:47.282Z,52.16
2023-03-16T02:23:21.365Z,50.75
2023-03-16T02:25:58.189Z,51.96
2023-03-16T02:28:34.218Z,51.90
2023-03-16T02:31:07.614Z,53.04
2023-03-16T02:33:38.927Z,52.32
2023-03-16T02:36:09.731Z,52.11
2023-03-16T02:38:42.167Z,50.78
2023-03-16T02:41:15.273Z,53.26
2023-03-16T02:43:52.672Z,52.41
2023-03-16T02:46:27.218Z,51.31
2023-03-16T02:49:03.593Z,52.23
2023-03-16T02:51:33.788Z,52.19
2023-03-16T02:54:04.688Z,53.05
2023-03-16T02:56:34.708Z,51.93
2023-03-16T02:59:05.957Z,52.58
2023-03-16T03:01:38.856Z,51.62
2023-03-16T03:04:10.167Z,53.89
2023-03-16T03:06:41.972Z,55.22
2023-03-16T03:09:13.630Z,52.32
2023-03-16T03:11:43.947Z,53.97
2023-03-16T03:14:17.374Z,52.78
2023-03-16T03:16:49.312Z,53.13
2023-03-16T03:19:19.197Z,52.24
2023-03-16T03:21:50.531Z,52.26
2023-03-16T03:24:20.871Z,54.35
2023-03-16T03:26:50.998Z,52.11
2023-03-16T03:29:21.900Z,53.45
2023-03-16T03:31:53.704Z,55.09
2023-03-16T03:34:24.388Z,53.31
2023-03-16T03:36:55.212Z,53.13
2023-03-16T03:39:26.116Z,54.04
2023-03-16T03:41:56.376Z,54.24
2023-03-16T03:44:27.582Z,53.63
2023-03-16T03:46:59.284Z,55.17
2023-03-16T03:49:29.490Z,52.61
2023-03-16T03:52:05.051Z,52.45
2023-03-16T03:54:35.271Z,56.27
2023-03-16T03:57:05.014Z,54.38
2023-03-16T03:59:35.302Z,55.02
2023-03-16T04:02:07.490Z,53.63
2023-03-16T04:04:38.300Z,54.47
2023-03-16T04:07:09.024Z,54.38
2023-03-16T04:09:39.561Z,53.91
2023-03-16T04:12:11.071Z,54.94
2023-03-16T04:14:41.517Z,53.64
2023-03-16T04:17:14.220Z,55.04
2023-03-16T04:19:45.416Z,54.00
2023-03-16T04:22:15.417Z,55.21
2023-03-16T04:24:45.761Z,55.16
2023-03-16T04:27:15.649Z,55.43
2023-03-16T04:29:46.232Z,54.58
2023-03-16T04:32:17.933Z,55.24
2023-03-16T04:34:48.717Z,53.88
2023-03-16T04:37:19.230Z,53.81
2023-03-16T04:39:50.263Z,53.47
2023-03-16T04:42:20.125Z,54.32
2023-03-16T04:44:51.701Z,54.13
2023-03-16T04:47:24.903Z,53.91
2023-03-16T04:49:56.189Z,54.13
2023-03-16T04:52:27.770Z,55.23
2023-03-16T04:54:58.042Z,56.27
2023-03-16T04:57:28.198Z,55.64
2023-03-16T04:59:58.758Z,55.13
2023-03-16T05:02:30.735Z,56.79
2023-03-16T05:05:01.989Z,56.83
2023-03-16T05:07:33.180Z,54.68
2023-03-16T05:10:03.687Z,55.79
2023-03-16T05:12:33.627Z,54.70
2023-03-16T05:15:03.977Z,55.40
2023-03-16T05:17:35.909Z,57.01
2023-03-16T05:20:09.920Z,55.79
2023-03-16T05:22:42.163Z,55.51
2023-03-16T05:25:15.164Z,53.73
2023-03-16T05:27:46.901Z,56.75
2023-03-16T05:30:19.213Z,56.58
2023-03-16T05:32:51.785Z,57.00
2023-03-16T05:35:24.123Z,56.27
2023-03-16T05:37:54.543Z,57.19
2023-03-16T05:40:27.034Z,54.30
2023-03-16T05:43:00.912Z,54.35
2023-03-16T05:45:31.724Z,54.88
2023-03-16T05:48:06.046Z,53.68
2023-03-16T05:50:36.137Z,55.68
2023-03-16T05:53:05.997Z,54.56
2023-03-16T05:55:36.853Z,55.19
2023-03-16T05:58:07.537Z,56.00
2023-03-16T06:00:39.795Z,53.01
2023-03-16T06:03:12.031Z,52.98
2023-03-16T06:05:42.344Z,52.67
2023-03-16T06:08:12.736Z,52.36
2023-03-16T06:10:43.280Z,52.72
2023-03-16T06:13:13.719Z,51.90
2023-03-16T06:15:44.547Z,51.50
2023-03-16T06:18:16.714Z,52.16
2023-03-16T06:20:47.665Z,52.85
2023-03-16T06:23:19.900Z,51.52
2023-03-16T06:25:50.086Z,52.15
2023-03-16T06:28:20.166Z,51.90
2023-03-16T06:30:50.251Z,51.31
2023-03-16T06:33:22.460Z,50.53
2023-03-16T06:35:53.281Z,50.85
2023-03-16T06:38:23.659Z,50.85
2023-03-16T06:40:57.072Z,51.48
2023-03-16T06:43:28.216Z,50.92
2023-03-16T06:45:59.335Z,49.63
2023-03-16T06:48:32.005Z,49.62
2023-03-16T06:51:02.873Z,50.09
2023-03-16T06:53:34.597Z,49.87
2023-03-16T06:56:07.272Z,48.35
2023-03-16T06:58:38.035Z,48.60
2023-03-16T07:01:09.075Z,48.53
2023-03-16T07:03:42.428Z,48.53
2023-03-16T07:06:13.989Z,50.05
2023-03-16T07:08:47.826Z,49.20
2023-03-16T07:11:18.304Z,48.79
2023-03-16T07:13:48.915Z,48.12
2023-03-16T07:16:20.032Z,49.20
2023-03-16T07:18:52.557Z,49.11
2023-03-16T07:21:23.029Z,47.93
2023-03-16T07:23:59.893Z,47.81
2023-03-16T07:26:31.302Z,48.65
2023-03-16T07:29:02.712Z,48.22
2023-03-16T07:31:35.105Z,46.91
2023-03-16T07:34:06.977Z,47.86
2023-03-16T07:36:38.556Z,46.70
2023-03-16T07:39:10.259Z,46.18
2023-03-16T07:41:41.145Z,45.93
2023-03-16T07:44:12.381Z,46.16
2023-03-16T07:46:43.540Z,46.07
2023-03-16T07:49:16.881Z,47.40
2023-03-16T07:51:48.317Z,47.20
2023-03-16T07:54:19.222Z,46.85
2023-03-16T07:56:51.050Z,45.40
2023-03-16T07:59:22.477Z,46.00
2023-03-16T08:01:54.815Z,45.80
2023-03-16T08:04:27.897Z,45.62
2023-03-16T08:07:00.602Z,45.19
2023-03-16T08:09:31.729Z,44.56
2023-03-16T08:12:02.615Z,44.56
2023-03-16T08:14:35.180Z,44.20
2023-03-16T08:17:06.274Z,44.31
2023-03-16T08:19:38.320Z,44.45
2023-03-16T08:22:09.450Z,44.55
2023-03-16T08:24:40.677Z,43.45
2023-03-16T08:27:11.466Z,42.65
2023-03-16T08:29:41.550Z,43.81
2023-03-16T08:32:12.617Z,43.65
2023-03-16T08:34:46.332Z,42.53
2023-03-16T08:37:17.970Z,42.43
2023-03-16T08:39:51.947Z,42.78
2023-03-16T08:42:24.259Z,41.94
2023-03-16T08:44:56.001Z,42.47
2023-03-16T08:47:27.576Z,42.04
2023-03-16T08:50:01.896Z,39.82
2023-03-16T08:52:32.822Z,41.62
2023-03-16T08:55:05.216Z,41.42
2023-03-16T08:57:35.920Z,41.24
2023-03-16T09:00:13.178Z,40.32
2023-03-16T09:02:44.798Z,40.60
2023-03-16T09:05:19.095Z,40.20
2023-03-16T09:07:50.482Z,41.32
2023-03-16T09:10:20.298Z,40.46
2023-03-16T09:12:51.087Z,40.69
2023-03-16T09:15:22.515Z,39.33
2023-03-16T09:17:55.091Z,38.14
2023-03-16T09:20:34.592Z,38.42
2023-03-16T09:23:06.159Z,38.36
2023-03-16T09:25:36.600Z,35.97
2023-03-16T09:28:09.166Z,35.55
2023-03-16T09:30:40.108Z,35.39
2023-03-16T09:33:11.795Z,35.23
2023-03-16T09:35:45.715Z,35.00
2023-03-16T09:38:15.968Z,35.86
2023-03-16T09:40:47.283Z,36.09
2023-03-16T09:43:38.304Z,36.44
2023-03-16T09:46:12.828Z,36.73
2023-03-16T09:48:44.206Z,36.44
2023-03-16T09:51:21.957Z,35.89
2023-03-16T09:53:54.643Z,36.76
2023-03-16T09:56:30.331Z,36.31
2023-03-16T09:59:01.956Z,35.28
2023-03-16T10:01:43.171Z,37.89
2023-03-16T10:04:23.416Z,36.64
2023-03-16T10:07:03.007Z,35.69
2023-03-16T10:09:37.114Z,35.69
2023-03-16T10:12:10.227Z,37.20
2023-03-16T10:14:45.920Z,33.48
2023-03-16T10:17:20.231Z,33.91
2023-03-16T10:19:54.211Z,32.40
2023-03-16T10:22:30.387Z,30.89
2023-03-16T10:25:13.260Z,33.17
2023-03-16T10:27:45.757Z,33.56
2023-03-16T10:30:28.917Z,31.42
2023-03-16T10:33:03.819Z,31.66
2023-03-16T10:35:43.304Z,29.94
2023-03-16T10:38:29.972Z,30.03
2023-03-16T10:41:00.935Z,30.41
2023-03-16T10:43:33.201Z,31.21
2023-03-16T10:46:05.081Z,28.79
2023-03-16T10:48:36.718Z,30.67
2023-03-16T10:51:10.502Z,27.05
2023-03-16T10:53:44.824Z,27.66
2023-03-16T10:56:21.366Z,26.94
2023-03-16T10:58:52.203Z,27.55
2023-03-16T11:01:27.225Z,26.98
2023-03-16T11:04:02.699Z,27.01
2023-03-16T11:06:35.790Z,27.29
2023-03-16T11:09:09.908Z,27.70
2023-03-16T11:11:40.347Z,27.83
2023-03-16T11:14:15.772Z,28.50
2023-03-16T11:16:51.336Z,28.28
2023-03-16T11:19:23.617Z,26.70
2023-03-16T11:21:59.474Z,27.98
2023-03-16T11:24:36.195Z,24.76
2023-03-16T11:27:09.711Z,26.36
2023-03-16T11:29:49.204Z,28.47
2023-03-16T11:32:24.413Z,27.73
2023-03-16T11:34:54.547Z,25.31
2023-03-16T11:37:38.447Z,25.92
2023-03-16T11:40:18.059Z,27.42
2023-03-16T11:42:56.704Z,25.82
2023-03-16T11:45:33.243Z,25.38
2023-03-16T11:48:13.046Z,26.33
2023-03-16T11:50:53.079Z,25.54
2023-03-16T11:53:35.653Z,26.59
2023-03-16T11:56:16.542Z,25.60
2023-03-16T11:58:58.213Z,24.89
2023-03-16T12:01:43.253Z,25.73
2023-03-16T12:04:31.218Z,25.81
2023-03-16T12:07:14.292Z,23.08
2023-03-16T12:10:11.256Z,24.44
2023-03-16T12:12:50.598Z,22.63
2023-03-16T12:15:25.929Z,25.18
2023-03-16T12:17:58.651Z,25.25
2023-03-16T12:20:32.229Z,25.35
2023-03-16T12:23:08.540Z,24.60
2023-03-16T12:25:43.274Z,24.04
2023-03-16T12:28:22.743Z,22.40
2023-03-16T12:31:00.600Z,21.35
2023-03-16T12:33:42.299Z,23.83
2023-03-16T12:36:40.471Z,24.22
2023-03-16T12:39:15.123Z,22.64
2023-03-16T12:41:57.634Z,21.60
2023-03-16T12:44:34.876Z,19.55
2023-03-16T12:47:13.306Z,19.97
2023-03-16T12:49:45.940Z,21.78
2023-03-16T12:52:17.119Z,21.84
2023-03-16T12:54:55.850Z,20.76
2023-03-16T12:57:28.591Z,19.92
2023-03-16T13:00:01.790Z,20.45
2023-03-16T13:02:35.319Z,21.04
2023-03-16T13:05:11.169Z,19.73
2023-03-16T13:07:50.175Z,20.33
2023-03-16T13:10:22.645Z,22.18
2023-03-16T13:12:54.146Z,22.23
2023-03-16T13:15:33.607Z,22.79
2023-03-16T13:18:23.093Z,22.47
2023-03-16T13:20:59.135Z,21.14
2023-03-16T13:23:31.523Z,19.95
2023-03-16T13:26:09.679Z,20.47
2023-03-16T13:28:40.873Z,21.96
2023-03-16T13:31:26.467Z,22.19
2023-03-16T13:34:00.549Z,20.61
2023-03-16T13:36:32.063Z,22.19
2023-03-16T13:39:07.695Z,20.68
2023-03-16T13:41:38.146Z,20.60
2023-03-16T13:44:13.869Z,20.42
2023-03-16T13:46:45.612Z,21.27
2023-03-16T13:49:15.578Z,22.33
2023-03-16T13:51:46.035Z,20.76
2023-03-16T13:54:26.271Z,20.45
2023-03-16T13:56:59.726Z,20.92
2023-03-16T13:59:30.942Z,21.28
2023-03-16T14:02:03.758Z,22.55
2023-03-16T14:04:37.177Z,21.09
2023-03-16T14:07:08.810Z,19.84
2023-03-16T14:09:39.902Z,21.07
2023-03-16T14:12:15.411Z,21.44
2023-03-16T14:14:50.918Z,21.57
2023-03-16T14:17:23.824Z,21.79
2023-03-16T14:19:58.270Z,21.50
2023-03-16T14:22:40.994Z,21.61
2023-03-16T14:25:22.897Z,22.27
2023-03-16T14:28:01.436Z,21.88
2023-03-16T14:30:32.470Z,21.31
2023-03-16T14:33:05.919Z,21.03
2023-03-16T14:35:44.313Z,22.16
2023-03-16T14:38:24.165Z,23.07
2023-03-16T14:40:56.751Z,21.44
2023-03-16T14:43:33.155Z,22.21
2023-03-16T14:46:05.714Z,22.07
2023-03-16T14:48:39.425Z,22.41
2023-03-16T14:51:13.611Z,24.05
2023-03-16T14:53:44.251Z,22.24
2023-03-16T14:56:18.036Z,23.00
2023-03-16T14:58:48.411Z,24.31
2023-03-16T15:01:20.991Z,22.40
2023-03-16T15:03:53.302Z,22.37
2023-03-16T15:06:23.982Z,23.06
2023-03-16T15:08:55.111Z,23.34
2023-03-16T15:11:26.857Z,24.50
2023-03-16T15:14:04.688Z,22.39
2023-03-16T15:16:34.944Z,23.01
2023-03-16T15:19:06.377Z,22.98
2023-03-16T15:21:37.032Z,22.54
2023-03-16T15:24:06.730Z,22.57
2023-03-16T15:26:37.621Z,23.46
2023-03-16T15:29:11.912Z,22.73
2023-03-16T15:31:42.005Z,22.91
2023-03-16T15:34:13.764Z,22.96
2023-03-16T15:36:44.022Z,22.51
2023-03-16T15:39:23.028Z,24.47
2023-03-16T15:41:52.859Z,23.89
2023-03-16T15:44:23.188Z,24.84
2023-03-16T15:46:55.601Z,23.39
2023-03-16T15:49:30.196Z,23.27
2023-03-16T15:52:03.055Z,23.19
2023-03-16T15:54:35.760Z,23.57
2023-03-16T15:57:06.601Z,23.15
2023-03-16T15:59:38.549Z,24.43
2023-03-16T16:02:24.853Z,24.33
2023-03-16T16:04:57.560Z,23.89
2023-03-16T16:07:28.863Z,23.03
2023-03-16T16:09:59.043Z,24.86
2023-03-16T16:12:30.380Z,24.38
2023-03-16T16:15:00.558Z,23.48
2023-03-16T16:17:47.966Z,24.03
2023-03-16T16:20:27.109Z,25.35
2023-03-16T16:23:00.737Z,25.41
2023-03-16T16:25:35.730Z,24.09
2023-03-16T16:28:13.375Z,25.43
2023-03-16T16:30:43.787Z,26.35
2023-03-16T16:33:26.541Z,24.73
2023-03-16T16:36:01.142Z,25.21
2023-03-16T16:38:31.958Z,25.49
2023-03-16T16:41:03.992Z,27.33
2023-03-16T16:43:39.113Z,26.51
2023-03-16T16:46:15.798Z,27.55
2023-03-16T16:48:47.926Z,26.20
2023-03-16T16:51:21.985Z,26.71
2023-03-16T16:53:53.401Z,27.10
2023-03-16T16:56:28.066Z,27.55
2023-03-16T16:58:59.671Z,26.95
2023-03-16T17:01:33.401Z,27.43
2023-03-16T17:04:06.203Z,27.06
2023-03-16T17:06:39.925Z,27.85
2023-03-16T17:09:11.046Z,27.20
2023-03-16T17:11:42.188Z,27.61
2023-03-16T17:14:19.212Z,27.73
2023-03-16T17:16:50.933Z,28.26
2023-03-16T17:19:23.426Z,29.00
2023-03-16T17:21:57.516Z,29.10
2023-03-16T17:24:28.912Z,28.69
2023-03-16T17:27:00.469Z,29.47
2023-03-16T17:29:33.706Z,29.73
2023-03-16T17:32:04.757Z,30.00
2023-03-16T17:34:37.282Z,30.59
2023-03-16T17:37:15.424Z,31.49
2023-03-16T17:39:46.384Z,31.81
2023-03-16T17:42:18.739Z,31.83
2023-03-16T17:44:50.904Z,32.01
2023-03-16T17:47:23.122Z,31.85
2023-03-16T17:49:53.237Z,32.11
2023-03-16T17:52:26.051Z,32.43
2023-03-16T17:54:56.927Z,32.88
2023-03-16T17:57:29.862Z,33.29
2023-03-16T18:00:01.471Z,33.61
2023-03-16T18:02:50.048Z,33.11
2023-03-16T18:05:23.296Z,33.63
2023-03-16T18:07:57.115Z,33.81
2023-03-16T18:10:33.438Z,33.91
2023-03-16T18:13:05.594Z,34.51
2023-03-16T18:15:40.124Z,34.13
2023-03-16T18:18:13.535Z,34.96
2023-03-16T18:20:45.244Z,35.18
2023-03-16T18:23:32.611Z,35.18
2023-03-16T18:26:04.184Z,35.63
2023-03-16T18:28:35.583Z,35.48
2023-03-16T18:31:07.964Z,36.08
2023-03-16T18:33:39.675Z,36.43
2023-03-16T18:36:18.864Z,36.20
2023-03-16T18:38:52.386Z,36.03
2023-03-16T18:41:25.695Z,36.30
2023-03-16T18:43:59.199Z,36.11
2023-03-16T18:46:33.736Z,36.36
2023-03-16T18:49:05.591Z,37.26
2023-03-16T18:51:37.453Z,36.79
2023-03-16T18:54:21.862Z,37.00
2023-03-16T18:56:53.213Z,36.83
2023-03-16T18:59:23.328Z,37.66
2023-03-16T19:01:58.371Z,37.38
2023-03-16T19:04:31.301Z,36.52
2023-03-16T19:07:02.446Z,37.13
2023-03-16T19:09:36.394Z,37.69
2023-03-16T19:12:10.683Z,37.59
2023-03-16T19:14:41.141Z,37.39
2023-03-16T19:17:12.237Z,37.66
2023-03-16T19:19:43.461Z,36.28
2023-03-16T19:22:19.254Z,37.24
2023-03-16T19:24:53.125Z,37.72
2023-03-16T19:27:27.146Z,37.89
2023-03-16T19:29:58.100Z,36.99
2023-03-16T19:32:29.048Z,36.96
2023-03-16T19:35:00.703Z,37.13
2023-03-16T19:37:31.369Z,37.89
2023-03-16T19:40:03.915Z,38.44
2023-03-16T19:42:36.418Z,37.39
2023-03-16T19:45:08.589Z,37.57
2023-03-16T19:47:40.086Z,38.10
2023-03-16T19:50:17.272Z,38.04
2023-03-16T19:52:47.810Z,38.39
2023-03-16T19:55:22.850Z,37.83
2023-03-16T19:58:01.693Z,38.54
2023-03-16T20:00:32.313Z,37.86
2023-03-16T20:03:02.922Z,39.53
2023-03-16T20:05:34.320Z,39.28
2023-03-16T20:08:08.873Z,39.38
2023-03-16T20:10:42.499Z,39.74
2023-03-16T20:13:14.632Z,40.30
2023-03-16T20:15:46.036Z,39.72
2023-03-16T20:18:19.191Z,40.69
2023-03-16T20:20:51.285Z,40.75
2023-03-16T20:23:24.854Z,40.51
2023-03-16T20:26:02.812Z,41.17
2023-03-16T20:28:37.916Z,40.87
2023-03-16T20:31:12.044Z,41.63
2023-03-16T20:33:44.957Z,40.62
2023-03-16T20:36:16.073Z,41.29
2023-03-16T20:38:47.751Z,41.01
2023-03-16T20:41:28.494Z,40.58
2023-03-16T20:44:01.494Z,39.68
2023-03-16T20:46:34.823Z,39.91
2023-03-16T20:49:08.269Z,38.72
2023-03-16T20:51:42.390Z,39.37
2023-03-16T20:54:24.423Z,40.02
2023-03-16T20:56:58.510Z,39.76
2023-03-16T20:59:30.969Z,39.77
2023-03-16T21:02:02.043Z,39.70
2023-03-16T21:04:33.699Z,39.74
2023-03-16T21:07:05.274Z,39.12
2023-03-16T21:09:35.856Z,39.00
2023-03-16T21:12:10.939Z,38.70
2023-03-16T21:14:42.442Z,39.01
2023-03-16T21:17:23.585Z,39.10
2023-03-16T21:19:59.301Z,39.41
2023-03-16T21:22:31.897Z,39.17
2023-03-16T21:25:02.310Z,39.54
2023-03-16T21:27:38.044Z,39.35
2023-03-16T21:30:14.425Z,39.82
2023-03-16T21:32:44.941Z,39.75
2023-03-16T21:35:16.891Z,39.55
2023-03-16T21:37:47.650Z,38.85
2023-03-16T21:40:23.660Z,39.67
2023-03-16T21:42:56.692Z,39.48
2023-03-16T21:45:27.266Z,39.45
2023-03-16T21:47:58.839Z,39.28
2023-03-16T21:50:34.308Z,39.90
2023-03-16T21:53:04.740Z,39.53
2023-03-16T21:55:36.143Z,39.80
2023-03-16T21:58:08.403Z,39.72
2023-03-16T22:00:39.013Z,39.98
2023-03-16T22:03:22.147Z,40.25
2023-03-16T22:05:53.532Z,40.43
2023-03-16T22:08:26.195Z,40.12
2023-03-16T22:10:57.502Z,41.46
2023-03-16T22:13:28.980Z,40.95
2023-03-16T22:16:00.431Z,39.77
2023-03-16T22:18:35.165Z,41.73
2023-03-16T22:21:27.962Z,41.09
2023-03-16T22:23:59.580Z,41.51
2023-03-16T22:26:31.791Z,42.04
2023-03-16T22:29:18.950Z,42.19
2023-03-16T22:31:51.734Z,42.07
2023-03-16T22:34:32.470Z,42.45
2023-03-16T22:37:03.903Z,42.29
2023-03-16T22:39:39.753Z,42.21
2023-03-16T22:42:31.034Z,41.54
2023-03-16T22:45:05.834Z,41.98
2023-03-16T22:47:39.505Z,41.93
2023-03-16T22:50:12.078Z,43.16
2023-03-16T22:52:43.984Z,42.52
2023-03-16T22:55:18.958Z,44.34
2023-03-16T22:57:50.539Z,41.97
2023-03-16T23:00:23.536Z,42.48
2023-03-16T23:02:53.972Z,43.29
2023-03-16T23:05:25.840Z,42.22
2023-03-16T23:07:56.485Z,42.31
2023-03-16T23:10:28.564Z,42.67
2023-03-16T23:12:59.843Z,43.76
2023-03-16T23:15:32.677Z,43.25
2023-03-16T23:18:02.865Z,43.38
2023-03-16T23:20:34.045Z,44.10
2023-03-16T23:23:04.352Z,44.10
2023-03-16T23:25:34.809Z,44.54
2023-03-16T23:28:06.457Z,45.36
2023-03-16T23:30:38.916Z,45.00
2023-03-16T23:33:09.143Z,44.80
2023-03-16T23:35:39.017Z,44.53
2023-03-16T23:38:10.592Z,43.47
2023-03-16T23:40:41.937Z,43.63
2023-03-16T23:43:12.397Z,44.66
2023-03-16T23:45:46.982Z,45.13
2023-03-16T23:48:19.786Z,43.69
2023-03-16T23:50:52.542Z,44.14
2023-03-16T23:53:23.005Z,44.17
2023-03-16T23:55:53.167Z,45.14
2023-03-16T23:58:23.967Z,44.33
